sensor_id;sensor_type;location;lat;lon;timestamp;temperature;humidity
9730;DHT22;4904;49.152;11.004;2023-04-23T00:02:19;14.30;99.90
9730;DHT22;4904;49.152;11.004;2023-04-23T00:04:50;14.40;99.90
9730;DHT22;4904;49.152;11.004;2023-04-23T00:07:19;14.50;99.90
9730;DHT22;4904;49.152;11.004;2023-04-23T00:09:46;14.70;99.90
9730;DHT22;4904;49.152;11.004;2023-04-23T00:12:15;14.70;99.90
9730;DHT22;4904;49.152;11.004;2023-04-23T00:14:43;14.70;99.90
9730;DHT22;4904;49.152;11.004;2023-04-23T00:17:10;14.80;99.90
9730;DHT22;4904;49.152;11.004;2023-04-23T00:19:37;14.80;99.90
9730;DHT22;4904;49.152;11.004;2023-04-23T00:22:05;14.70;99.90
9730;DHT22;4904;49.152;11.004;2023-04-23T00:24:32;14.70;99.90
9730;DHT22;4904;49.152;11.004;2023-04-23T00:27:01;14.70;99.90
9730;DHT22;4904;49.152;11.004;2023-04-23T00:29:28;14.70;99.90
9730;DHT22;4904;49.152;11.004;2023-04-23T00:31:56;14.80;99.90
9730;DHT22;4904;49.152;11.004;2023-04-23T00:34:22;14.80;99.90
9730;DHT22;4904;49.152;11.004;2023-04-23T00:36:50;14.80;99.90
9730;DHT22;4904;49.152;11.004;2023-04-23T00:39:18;14.90;99.90
9730;DHT22;4904;49.152;11.004;2023-04-23T00:41:45;14.90;99.90
9730;DHT22;4904;49.152;11.004;2023-04-23T00:44:12;14.90;99.90
9730;DHT22;4904;49.152;11.004;2023-04-23T00:46:39;15.00;99.90
9730;DHT22;4904;49.152;11.004;2023-04-23T00:49:07;15.00;99.90
9730;DHT22;4904;49.152;11.004;2023-04-23T00:51:34;15.00;99.90
9730;DHT22;4904;49.152;11.004;2023-04-23T00:54:02;15.00;99.90
9730;DHT22;4904;49.152;11.004;2023-04-23T00:56:30;15.00;99.90
9730;DHT22;4904;49.152;11.004;2023-04-23T00:58:57;15.00;99.90
9730;DHT22;4904;49.152;11.004;2023-04-23T01:01:24;15.00;99.90
9730;DHT22;4904;49.152;11.004;2023-04-23T01:03:52;15.00;99.90
9730;DHT22;4904;49.152;11.004;2023-04-23T01:06:21;15.00;99.90
9730;DHT22;4904;49.152;11.004;2023-04-23T01:08:49;15.00;99.90
9730;DHT22;4904;49.152;11.004;2023-04-23T01:11:16;15.00;99.90
9730;DHT22;4904;49.152;11.004;2023-04-23T01:13:45;14.80;99.90
9730;DHT22;4904;49.152;11.004;2023-04-23T01:16:12;14.90;99.90
9730;DHT22;4904;49.152;11.004;2023-04-23T01:18:40;14.90;99.90
9730;DHT22;4904;49.152;11.004;2023-04-23T01:21:07;14.80;99.90
9730;DHT22;4904;49.152;11.004;2023-04-23T01:23:36;14.80;99.90
9730;DHT22;4904;49.152;11.004;2023-04-23T01:26:04;14.70;99.90
9730;DHT22;4904;49.152;11.004;2023-04-23T01:28:31;14.20;99.90
9730;DHT22;4904;49.152;11.004;2023-04-23T01:30:59;14.10;99.90
9730;DHT22;4904;49.152;11.004;2023-04-23T01:33:26;14.10;99.90
9730;DHT22;4904;49.152;11.004;2023-04-23T01:35:54;13.90;99.90
9730;DHT22;4904;49.152;11.004;2023-04-23T01:38:22;14.00;99.90
9730;DHT22;4904;49.152;11.004;2023-04-23T01:40:52;14.00;99.90
9730;DHT22;4904;49.152;11.004;2023-04-23T01:43:19;14.00;99.90
9730;DHT22;4904;49.152;11.004;2023-04-23T01:45:46;13.90;99.90
9730;DHT22;4904;49.152;11.004;2023-04-23T01:48:13;13.80;99.90
9730;DHT22;4904;49.152;11.004;2023-04-23T01:50:41;13.70;99.90
9730;DHT22;4904;49.152;11.004;2023-04-23T01:53:08;13.50;99.90
9730;DHT22;4904;49.152;11.004;2023-04-23T01:55:37;13.30;99.90
9730;DHT22;4904;49.152;11.004;2023-04-23T01:58:05;13.40;99.90
9730;DHT22;4904;49.152;11.004;2023-04-23T02:00:32;13.30;99.90
9730;DHT22;4904;49.152;11.004;2023-04-23T02:02:59;13.20;99.90
9730;DHT22;4904;49.152;11.004;2023-04-23T02:05:28;13.20;99.90
9730;DHT22;4904;49.152;11.004;2023-04-23T02:07:55;13.40;99.90
9730;DHT22;4904;49.152;11.004;2023-04-23T02:10:23;13.30;99.90
9730;DHT22;4904;49.152;11.004;2023-04-23T02:12:50;13.40;99.90
9730;DHT22;4904;49.152;11.004;2023-04-23T02:15:18;13.40;99.90
9730;DHT22;4904;49.152;11.004;2023-04-23T02:17:46;13.40;99.90
9730;DHT22;4904;49.152;11.004;2023-04-23T02:20:15;13.60;99.90
9730;DHT22;4904;49.152;11.004;2023-04-23T02:22:43;13.40;99.90
9730;DHT22;4904;49.152;11.004;2023-04-23T02:25:11;13.40;99.90
9730;DHT22;4904;49.152;11.004;2023-04-23T02:27:40;13.40;99.90
9730;DHT22;4904;49.152;11.004;2023-04-23T02:30:08;13.60;99.90
9730;DHT22;4904;49.152;11.004;2023-04-23T02:32:37;13.60;99.90
9730;DHT22;4904;49.152;11.004;2023-04-23T02:35:05;13.70;99.90
9730;DHT22;4904;49.152;11.004;2023-04-23T02:37:34;13.70;99.90
9730;DHT22;4904;49.152;11.004;2023-04-23T02:40:01;13.70;99.90
9730;DHT22;4904;49.152;11.004;2023-04-23T02:42:30;13.70;99.90
9730;DHT22;4904;49.152;11.004;2023-04-23T02:44:57;13.70;99.90
9730;DHT22;4904;49.152;11.004;2023-04-23T02:47:24;13.70;99.90
9730;DHT22;4904;49.152;11.004;2023-04-23T02:49:53;13.70;99.90
9730;DHT22;4904;49.152;11.004;2023-04-23T02:52:20;13.60;99.90
9730;DHT22;4904;49.152;11.004;2023-04-23T02:54:47;13.60;99.90
9730;DHT22;4904;49.152;11.004;2023-04-23T02:57:14;13.60;99.90
9730;DHT22;4904;49.152;11.004;2023-04-23T02:59:41;13.60;99.90
9730;DHT22;4904;49.152;11.004;2023-04-23T03:02:08;13.60;99.90
9730;DHT22;4904;49.152;11.004;2023-04-23T03:04:35;13.50;99.90
9730;DHT22;4904;49.152;11.004;2023-04-23T03:07:04;13.60;99.90
9730;DHT22;4904;49.152;11.004;2023-04-23T03:09:31;13.50;99.90
9730;DHT22;4904;49.152;11.004;2023-04-23T03:11:58;13.50;99.90
9730;DHT22;4904;49.152;11.004;2023-04-23T03:14:26;13.40;99.90
9730;DHT22;4904;49.152;11.004;2023-04-23T03:16:53;13.40;99.90
9730;DHT22;4904;49.152;11.004;2023-04-23T03:19:20;13.40;99.90
9730;DHT22;4904;49.152;11.004;2023-04-23T03:21:46;13.50;99.90
9730;DHT22;4904;49.152;11.004;2023-04-23T03:24:15;13.40;99.90
9730;DHT22;4904;49.152;11.004;2023-04-23T03:26:42;13.40;99.90
9730;DHT22;4904;49.152;11.004;2023-04-23T03:29:09;13.40;99.90
9730;DHT22;4904;49.152;11.004;2023-04-23T03:31:36;13.30;99.90
9730;DHT22;4904;49.152;11.004;2023-04-23T03:34:04;13.30;99.90
9730;DHT22;4904;49.152;11.004;2023-04-23T03:36:31;13.30;99.90
9730;DHT22;4904;49.152;11.004;2023-04-23T03:38:58;13.30;99.90
9730;DHT22;4904;49.152;11.004;2023-04-23T03:41:28;13.30;99.90
9730;DHT22;4904;49.152;11.004;2023-04-23T03:43:54;13.20;99.90
9730;DHT22;4904;49.152;11.004;2023-04-23T03:46:21;13.10;99.90
9730;DHT22;4904;49.152;11.004;2023-04-23T03:48:48;13.00;99.90
9730;DHT22;4904;49.152;11.004;2023-04-23T03:51:16;13.10;99.90
9730;DHT22;4904;49.152;11.004;2023-04-23T03:53:43;13.10;99.90
9730;DHT22;4904;49.152;11.004;2023-04-23T03:56:10;13.00;99.90
9730;DHT22;4904;49.152;11.004;2023-04-23T03:58:39;12.90;99.90
9730;DHT22;4904;49.152;11.004;2023-04-23T04:01:06;13.00;99.90
9730;DHT22;4904;49.152;11.004;2023-04-23T04:03:33;12.90;99.90
9730;DHT22;4904;49.152;11.004;2023-04-23T04:06:01;12.90;99.90
9730;DHT22;4904;49.152;11.004;2023-04-23T04:08:27;12.90;99.90
9730;DHT22;4904;49.152;11.004;2023-04-23T04:10:55;12.90;99.90
9730;DHT22;4904;49.152;11.004;2023-04-23T04:13:22;12.80;99.90
9730;DHT22;4904;49.152;11.004;2023-04-23T04:15:50;12.80;99.90
9730;DHT22;4904;49.152;11.004;2023-04-23T04:18:18;12.80;99.90
9730;DHT22;4904;49.152;11.004;2023-04-23T04:20:45;12.80;99.90
9730;DHT22;4904;49.152;11.004;2023-04-23T04:23:12;12.70;99.90
9730;DHT22;4904;49.152;11.004;2023-04-23T04:25:39;12.70;99.90
9730;DHT22;4904;49.152;11.004;2023-04-23T04:28:06;12.80;99.90
9730;DHT22;4904;49.152;11.004;2023-04-23T04:30:36;12.70;99.90
9730;DHT22;4904;49.152;11.004;2023-04-23T04:33:05;12.60;99.90
9730;DHT22;4904;49.152;11.004;2023-04-23T04:35:33;12.60;99.90
9730;DHT22;4904;49.152;11.004;2023-04-23T04:38:00;12.60;99.90
9730;DHT22;4904;49.152;11.004;2023-04-23T04:40:27;12.50;99.90
9730;DHT22;4904;49.152;11.004;2023-04-23T04:42:54;12.50;99.90
9730;DHT22;4904;49.152;11.004;2023-04-23T04:45:21;12.50;99.90
9730;DHT22;4904;49.152;11.004;2023-04-23T04:47:50;12.40;99.90
9730;DHT22;4904;49.152;11.004;2023-04-23T04:50:18;12.40;99.90
9730;DHT22;4904;49.152;11.004;2023-04-23T04:52:45;12.50;99.90
9730;DHT22;4904;49.152;11.004;2023-04-23T04:55:12;12.40;99.90
9730;DHT22;4904;49.152;11.004;2023-04-23T04:57:39;12.60;99.90
9730;DHT22;4904;49.152;11.004;2023-04-23T05:00:20;12.30;99.90
9730;DHT22;4904;49.152;11.004;2023-04-23T05:02:48;12.20;99.90
9730;DHT22;4904;49.152;11.004;2023-04-23T05:05:16;12.10;99.90
9730;DHT22;4904;49.152;11.004;2023-04-23T05:07:44;12.00;99.90
9730;DHT22;4904;49.152;11.004;2023-04-23T05:10:11;12.10;99.90
9730;DHT22;4904;49.152;11.004;2023-04-23T05:12:38;11.90;99.90
9730;DHT22;4904;49.152;11.004;2023-04-23T05:15:08;11.90;99.90
9730;DHT22;4904;49.152;11.004;2023-04-23T05:17:37;11.90;99.90
9730;DHT22;4904;49.152;11.004;2023-04-23T05:20:05;11.80;99.90
9730;DHT22;4904;49.152;11.004;2023-04-23T05:22:35;11.80;99.90
9730;DHT22;4904;49.152;11.004;2023-04-23T05:25:04;11.80;99.90
9730;DHT22;4904;49.152;11.004;2023-04-23T05:27:32;11.80;99.90
9730;DHT22;4904;49.152;11.004;2023-04-23T05:29:59;11.80;99.90
9730;DHT22;4904;49.152;11.004;2023-04-23T05:32:26;11.80;99.90
9730;DHT22;4904;49.152;11.004;2023-04-23T05:34:53;11.80;99.90
9730;DHT22;4904;49.152;11.004;2023-04-23T05:37:20;11.80;99.90
9730;DHT22;4904;49.152;11.004;2023-04-23T05:39:48;11.80;99.90
9730;DHT22;4904;49.152;11.004;2023-04-23T05:42:16;11.80;99.90
9730;DHT22;4904;49.152;11.004;2023-04-23T05:44:43;11.90;99.90
9730;DHT22;4904;49.152;11.004;2023-04-23T05:47:12;11.80;99.90
9730;DHT22;4904;49.152;11.004;2023-04-23T05:49:40;11.80;99.90
9730;DHT22;4904;49.152;11.004;2023-04-23T05:52:07;12.10;99.90
9730;DHT22;4904;49.152;11.004;2023-04-23T05:54:34;11.70;99.90
9730;DHT22;4904;49.152;11.004;2023-04-23T05:57:01;12.00;99.90
9730;DHT22;4904;49.152;11.004;2023-04-23T05:59:30;11.70;99.90
9730;DHT22;4904;49.152;11.004;2023-04-23T06:01:58;11.70;99.90
9730;DHT22;4904;49.152;11.004;2023-04-23T06:04:25;11.70;99.90
9730;DHT22;4904;49.152;11.004;2023-04-23T06:06:52;11.80;99.90
9730;DHT22;4904;49.152;11.004;2023-04-23T06:09:19;11.80;99.90
9730;DHT22;4904;49.152;11.004;2023-04-23T06:11:46;11.80;99.90
9730;DHT22;4904;49.152;11.004;2023-04-23T06:14:15;11.80;99.90
9730;DHT22;4904;49.152;11.004;2023-04-23T06:16:43;11.80;99.90
9730;DHT22;4904;49.152;11.004;2023-04-23T06:19:10;11.80;99.90
9730;DHT22;4904;49.152;11.004;2023-04-23T06:21:37;11.80;99.90
9730;DHT22;4904;49.152;11.004;2023-04-23T06:24:05;11.70;99.90
9730;DHT22;4904;49.152;11.004;2023-04-23T06:26:33;11.80;99.90
9730;DHT22;4904;49.152;11.004;2023-04-23T06:29:00;11.90;99.90
9730;DHT22;4904;49.152;11.004;2023-04-23T06:31:27;11.70;99.90
9730;DHT22;4904;49.152;11.004;2023-04-23T06:33:56;11.90;99.90
9730;DHT22;4904;49.152;11.004;2023-04-23T06:36:23;11.80;99.90
9730;DHT22;4904;49.152;11.004;2023-04-23T06:38:50;11.80;99.90
9730;DHT22;4904;49.152;11.004;2023-04-23T06:41:17;11.80;99.90
9730;DHT22;4904;49.152;11.004;2023-04-23T06:43:45;11.80;99.90
9730;DHT22;4904;49.152;11.004;2023-04-23T06:46:12;12.00;99.90
9730;DHT22;4904;49.152;11.004;2023-04-23T06:48:39;11.90;99.90
9730;DHT22;4904;49.152;11.004;2023-04-23T06:51:08;11.80;99.90
9730;DHT22;4904;49.152;11.004;2023-04-23T06:53:35;11.90;99.90
9730;DHT22;4904;49.152;11.004;2023-04-23T06:56:03;11.90;99.90
9730;DHT22;4904;49.152;11.004;2023-04-23T06:58:30;11.90;99.90
9730;DHT22;4904;49.152;11.004;2023-04-23T07:00:57;11.90;99.90
9730;DHT22;4904;49.152;11.004;2023-04-23T07:03:26;11.90;99.90
9730;DHT22;4904;49.152;11.004;2023-04-23T07:05:53;11.80;99.90
9730;DHT22;4904;49.152;11.004;2023-04-23T07:08:21;11.90;99.90
9730;DHT22;4904;49.152;11.004;2023-04-23T07:10:48;11.90;99.90
9730;DHT22;4904;49.152;11.004;2023-04-23T07:13:16;11.80;99.90
9730;DHT22;4904;49.152;11.004;2023-04-23T07:15:43;11.80;99.90
9730;DHT22;4904;49.152;11.004;2023-04-23T07:18:14;11.90;99.90
9730;DHT22;4904;49.152;11.004;2023-04-23T07:20:40;12.00;99.90
9730;DHT22;4904;49.152;11.004;2023-04-23T07:23:08;12.10;99.90
9730;DHT22;4904;49.152;11.004;2023-04-23T07:25:36;12.10;99.90
9730;DHT22;4904;49.152;11.004;2023-04-23T07:28:04;12.30;99.90
9730;DHT22;4904;49.152;11.004;2023-04-23T07:30:31;12.20;99.90
9730;DHT22;4904;49.152;11.004;2023-04-23T07:32:58;12.20;99.90
9730;DHT22;4904;49.152;11.004;2023-04-23T07:35:25;12.30;99.90
9730;DHT22;4904;49.152;11.004;2023-04-23T07:37:53;12.40;99.90
9730;DHT22;4904;49.152;11.004;2023-04-23T07:40:23;12.40;99.90
9730;DHT22;4904;49.152;11.004;2023-04-23T07:42:51;12.50;99.90
9730;DHT22;4904;49.152;11.004;2023-04-23T07:45:19;12.40;99.90
9730;DHT22;4904;49.152;11.004;2023-04-23T07:47:48;12.40;99.90
9730;DHT22;4904;49.152;11.004;2023-04-23T07:50:15;12.40;99.90
9730;DHT22;4904;49.152;11.004;2023-04-23T07:52:42;12.50;99.90
9730;DHT22;4904;49.152;11.004;2023-04-23T07:55:09;12.50;99.90
9730;DHT22;4904;49.152;11.004;2023-04-23T07:57:36;12.50;99.90
9730;DHT22;4904;49.152;11.004;2023-04-23T08:00:06;12.50;99.90
9730;DHT22;4904;49.152;11.004;2023-04-23T08:02:34;12.60;99.90
9730;DHT22;4904;49.152;11.004;2023-04-23T08:05:01;12.70;99.90
9730;DHT22;4904;49.152;11.004;2023-04-23T08:07:28;12.70;99.90
9730;DHT22;4904;49.152;11.004;2023-04-23T08:09:55;12.40;99.90
9730;DHT22;4904;49.152;11.004;2023-04-23T08:12:27;12.40;99.90
9730;DHT22;4904;49.152;11.004;2023-04-23T08:14:55;12.50;99.90
9730;DHT22;4904;49.152;11.004;2023-04-23T08:17:24;12.50;99.90
9730;DHT22;4904;49.152;11.004;2023-04-23T08:19:51;12.60;99.90
9730;DHT22;4904;49.152;11.004;2023-04-23T08:22:18;12.60;99.90
9730;DHT22;4904;49.152;11.004;2023-04-23T08:24:45;12.70;99.90
9730;DHT22;4904;49.152;11.004;2023-04-23T08:27:12;12.70;99.90
9730;DHT22;4904;49.152;11.004;2023-04-23T08:29:39;12.80;99.90
9730;DHT22;4904;49.152;11.004;2023-04-23T08:32:06;12.90;99.90
9730;DHT22;4904;49.152;11.004;2023-04-23T08:34:35;13.00;99.90
9730;DHT22;4904;49.152;11.004;2023-04-23T08:37:01;13.00;99.90
9730;DHT22;4904;49.152;11.004;2023-04-23T08:39:29;13.00;99.90
9730;DHT22;4904;49.152;11.004;2023-04-23T08:42:02;13.20;99.90
9730;DHT22;4904;49.152;11.004;2023-04-23T08:44:30;13.10;99.90
9730;DHT22;4904;49.152;11.004;2023-04-23T08:47:01;13.10;99.90
9730;DHT22;4904;49.152;11.004;2023-04-23T08:49:32;13.10;99.90
9730;DHT22;4904;49.152;11.004;2023-04-23T08:52:07;13.10;99.90
9730;DHT22;4904;49.152;11.004;2023-04-23T08:54:36;13.10;99.90
9730;DHT22;4904;49.152;11.004;2023-04-23T08:57:09;13.30;99.90
9730;DHT22;4904;49.152;11.004;2023-04-23T08:59:36;13.30;99.90
9730;DHT22;4904;49.152;11.004;2023-04-23T09:02:05;13.30;99.90
9730;DHT22;4904;49.152;11.004;2023-04-23T09:04:35;13.20;99.90
9730;DHT22;4904;49.152;11.004;2023-04-23T09:07:03;13.10;99.90
9730;DHT22;4904;49.152;11.004;2023-04-23T09:09:32;13.10;99.90
9730;DHT22;4904;49.152;11.004;2023-04-23T09:12:00;13.10;99.90
9730;DHT22;4904;49.152;11.004;2023-04-23T09:14:27;13.20;99.90
9730;DHT22;4904;49.152;11.004;2023-04-23T09:16:54;13.40;99.90
9730;DHT22;4904;49.152;11.004;2023-04-23T09:19:21;13.30;99.90
9730;DHT22;4904;49.152;11.004;2023-04-23T09:21:53;13.40;99.90
9730;DHT22;4904;49.152;11.004;2023-04-23T09:24:23;13.50;99.90
9730;DHT22;4904;49.152;11.004;2023-04-23T09:26:51;13.50;99.90
9730;DHT22;4904;49.152;11.004;2023-04-23T09:29:20;13.50;99.90
9730;DHT22;4904;49.152;11.004;2023-04-23T09:31:49;13.60;99.90
9730;DHT22;4904;49.152;11.004;2023-04-23T09:34:16;13.70;99.90
9730;DHT22;4904;49.152;11.004;2023-04-23T09:36:46;13.80;99.90
9730;DHT22;4904;49.152;11.004;2023-04-23T09:39:14;13.80;99.90
9730;DHT22;4904;49.152;11.004;2023-04-23T09:41:44;14.00;99.90
9730;DHT22;4904;49.152;11.004;2023-04-23T09:44:17;14.00;99.90
9730;DHT22;4904;49.152;11.004;2023-04-23T09:46:44;14.00;99.90
9730;DHT22;4904;49.152;11.004;2023-04-23T09:49:12;14.10;99.90
9730;DHT22;4904;49.152;11.004;2023-04-23T09:51:41;14.10;99.90
9730;DHT22;4904;49.152;11.004;2023-04-23T09:54:13;14.20;99.90
9730;DHT22;4904;49.152;11.004;2023-04-23T09:56:41;14.20;99.90
9730;DHT22;4904;49.152;11.004;2023-04-23T09:59:24;14.20;99.90
9730;DHT22;4904;49.152;11.004;2023-04-23T10:01:51;14.20;99.90
9730;DHT22;4904;49.152;11.004;2023-04-23T10:04:19;14.00;99.90
9730;DHT22;4904;49.152;11.004;2023-04-23T10:06:47;14.50;99.90
9730;DHT22;4904;49.152;11.004;2023-04-23T10:09:15;14.30;99.90
9730;DHT22;4904;49.152;11.004;2023-04-23T10:11:43;14.40;99.90
9730;DHT22;4904;49.152;11.004;2023-04-23T10:14:11;14.40;99.90
9730;DHT22;4904;49.152;11.004;2023-04-23T10:16:39;14.40;99.90
9730;DHT22;4904;49.152;11.004;2023-04-23T10:19:08;14.40;99.90
9730;DHT22;4904;49.152;11.004;2023-04-23T10:21:38;14.40;99.90
9730;DHT22;4904;49.152;11.004;2023-04-23T10:24:09;14.50;99.90
9730;DHT22;4904;49.152;11.004;2023-04-23T10:26:37;14.40;99.90
9730;DHT22;4904;49.152;11.004;2023-04-23T10:29:12;14.40;99.90
9730;DHT22;4904;49.152;11.004;2023-04-23T10:31:41;14.50;99.90
9730;DHT22;4904;49.152;11.004;2023-04-23T10:34:09;14.60;99.90
9730;DHT22;4904;49.152;11.004;2023-04-23T10:36:37;14.70;99.90
9730;DHT22;4904;49.152;11.004;2023-04-23T10:39:05;14.90;99.90
9730;DHT22;4904;49.152;11.004;2023-04-23T10:41:36;15.10;99.90
9730;DHT22;4904;49.152;11.004;2023-04-23T10:44:04;15.20;99.90
9730;DHT22;4904;49.152;11.004;2023-04-23T10:46:32;15.20;99.90
9730;DHT22;4904;49.152;11.004;2023-04-23T10:49:10;15.20;99.90
9730;DHT22;4904;49.152;11.004;2023-04-23T10:51:39;15.20;99.90
9730;DHT22;4904;49.152;11.004;2023-04-23T10:54:07;15.40;99.90
9730;DHT22;4904;49.152;11.004;2023-04-23T10:56:37;15.70;99.90
9730;DHT22;4904;49.152;11.004;2023-04-23T10:59:06;15.70;99.90
9730;DHT22;4904;49.152;11.004;2023-04-23T11:01:33;15.60;99.90
9730;DHT22;4904;49.152;11.004;2023-04-23T11:04:19;15.60;99.90
9730;DHT22;4904;49.152;11.004;2023-04-23T11:06:52;15.60;99.90
9730;DHT22;4904;49.152;11.004;2023-04-23T11:09:45;15.70;99.90
9730;DHT22;4904;49.152;11.004;2023-04-23T11:14:56;16.30;99.90
9730;DHT22;4904;49.152;11.004;2023-04-23T11:18:00;16.60;99.90
9730;DHT22;4904;49.152;11.004;2023-04-23T11:20:29;16.40;99.90
9730;DHT22;4904;49.152;11.004;2023-04-23T11:22:56;16.40;99.90
9730;DHT22;4904;49.152;11.004;2023-04-23T11:25:24;16.60;99.90
9730;DHT22;4904;49.152;11.004;2023-04-23T11:27:52;16.70;99.90
9730;DHT22;4904;49.152;11.004;2023-04-23T11:30:21;16.70;99.90
9730;DHT22;4904;49.152;11.004;2023-04-23T11:32:50;16.80;99.90
9730;DHT22;4904;49.152;11.004;2023-04-23T11:35:19;16.50;99.90
9730;DHT22;4904;49.152;11.004;2023-04-23T11:37:48;16.60;99.90
9730;DHT22;4904;49.152;11.004;2023-04-23T11:40:17;16.70;99.90
9730;DHT22;4904;49.152;11.004;2023-04-23T11:42:45;16.80;99.90
9730;DHT22;4904;49.152;11.004;2023-04-23T11:45:17;16.90;99.90
9730;DHT22;4904;49.152;11.004;2023-04-23T11:47:45;17.00;99.90
9730;DHT22;4904;49.152;11.004;2023-04-23T11:50:17;17.30;99.90
9730;DHT22;4904;49.152;11.004;2023-04-23T11:52:44;17.20;99.90
9730;DHT22;4904;49.152;11.004;2023-04-23T11:55:13;17.40;99.90
9730;DHT22;4904;49.152;11.004;2023-04-23T11:57:41;17.40;99.90
9730;DHT22;4904;49.152;11.004;2023-04-23T12:00:14;17.20;99.90
9730;DHT22;4904;49.152;11.004;2023-04-23T12:02:52;17.20;99.90
9730;DHT22;4904;49.152;11.004;2023-04-23T12:05:20;17.10;99.90
9730;DHT22;4904;49.152;11.004;2023-04-23T12:07:48;16.90;99.90
9730;DHT22;4904;49.152;11.004;2023-04-23T12:10:18;16.90;99.90
9730;DHT22;4904;49.152;11.004;2023-04-23T12:12:50;16.90;99.90
9730;DHT22;4904;49.152;11.004;2023-04-23T12:15:18;16.80;99.90
9730;DHT22;4904;49.152;11.004;2023-04-23T12:17:49;16.80;99.90
9730;DHT22;4904;49.152;11.004;2023-04-23T12:20:21;17.00;99.90
9730;DHT22;4904;49.152;11.004;2023-04-23T12:22:48;16.80;99.90
9730;DHT22;4904;49.152;11.004;2023-04-23T12:25:15;16.80;99.90
9730;DHT22;4904;49.152;11.004;2023-04-23T12:27:44;16.80;99.90
9730;DHT22;4904;49.152;11.004;2023-04-23T12:30:12;16.80;99.90
9730;DHT22;4904;49.152;11.004;2023-04-23T12:32:40;16.70;99.90
9730;DHT22;4904;49.152;11.004;2023-04-23T12:35:07;16.70;99.90
9730;DHT22;4904;49.152;11.004;2023-04-23T12:37:36;17.00;99.90
9730;DHT22;4904;49.152;11.004;2023-04-23T12:40:04;17.10;99.90
9730;DHT22;4904;49.152;11.004;2023-04-23T12:42:32;17.40;99.90
9730;DHT22;4904;49.152;11.004;2023-04-23T12:45:10;17.50;99.90
9730;DHT22;4904;49.152;11.004;2023-04-23T12:47:37;17.20;99.90
9730;DHT22;4904;49.152;11.004;2023-04-23T12:50:05;17.10;99.90
9730;DHT22;4904;49.152;11.004;2023-04-23T12:52:32;17.10;99.90
9730;DHT22;4904;49.152;11.004;2023-04-23T12:55:00;17.30;99.90
9730;DHT22;4904;49.152;11.004;2023-04-23T12:57:29;17.70;99.90
9730;DHT22;4904;49.152;11.004;2023-04-23T12:59:57;18.10;99.90
9730;DHT22;4904;49.152;11.004;2023-04-23T13:02:25;17.90;99.90
9730;DHT22;4904;49.152;11.004;2023-04-23T13:04:52;17.70;99.90
9730;DHT22;4904;49.152;11.004;2023-04-23T13:07:25;17.50;99.90
9730;DHT22;4904;49.152;11.004;2023-04-23T13:09:52;17.30;99.90
9730;DHT22;4904;49.152;11.004;2023-04-23T13:12:19;17.40;99.90
9730;DHT22;4904;49.152;11.004;2023-04-23T13:14:46;17.50;99.90
9730;DHT22;4904;49.152;11.004;2023-04-23T13:17:13;17.80;99.90
9730;DHT22;4904;49.152;11.004;2023-04-23T13:19:42;18.00;99.90
9730;DHT22;4904;49.152;11.004;2023-04-23T13:22:09;18.30;99.90
9730;DHT22;4904;49.152;11.004;2023-04-23T13:24:37;18.50;99.90
9730;DHT22;4904;49.152;11.004;2023-04-23T13:27:04;18.80;99.90
9730;DHT22;4904;49.152;11.004;2023-04-23T13:29:31;19.00;99.90
9730;DHT22;4904;49.152;11.004;2023-04-23T13:31:59;19.40;99.90
9730;DHT22;4904;49.152;11.004;2023-04-23T13:34:26;19.40;99.90
9730;DHT22;4904;49.152;11.004;2023-04-23T13:36:54;18.90;99.90
9730;DHT22;4904;49.152;11.004;2023-04-23T13:39:22;19.00;99.90
9730;DHT22;4904;49.152;11.004;2023-04-23T13:41:49;19.30;99.90
9730;DHT22;4904;49.152;11.004;2023-04-23T13:44:17;18.80;99.90
9730;DHT22;4904;49.152;11.004;2023-04-23T13:46:44;18.30;99.90
9730;DHT22;4904;49.152;11.004;2023-04-23T13:49:11;18.50;99.90
9730;DHT22;4904;49.152;11.004;2023-04-23T13:51:38;18.60;99.90
9730;DHT22;4904;49.152;11.004;2023-04-23T13:54:07;18.50;99.90
9730;DHT22;4904;49.152;11.004;2023-04-23T13:56:34;18.60;99.90
9730;DHT22;4904;49.152;11.004;2023-04-23T13:59:01;18.60;99.90
9730;DHT22;4904;49.152;11.004;2023-04-23T14:01:28;18.70;99.90
9730;DHT22;4904;49.152;11.004;2023-04-23T14:03:56;18.70;99.90
9730;DHT22;4904;49.152;11.004;2023-04-23T14:06:23;18.90;99.90
9730;DHT22;4904;49.152;11.004;2023-04-23T14:08:50;18.90;99.90
9730;DHT22;4904;49.152;11.004;2023-04-23T14:11:19;19.00;99.90
9730;DHT22;4904;49.152;11.004;2023-04-23T14:13:47;18.90;99.90
9730;DHT22;4904;49.152;11.004;2023-04-23T14:16:13;18.70;99.90
9730;DHT22;4904;49.152;11.004;2023-04-23T14:18:42;18.60;99.90
9730;DHT22;4904;49.152;11.004;2023-04-23T14:21:10;18.50;99.90
9730;DHT22;4904;49.152;11.004;2023-04-23T14:23:53;18.70;99.90
9730;DHT22;4904;49.152;11.004;2023-04-23T14:26:27;18.90;99.90
9730;DHT22;4904;49.152;11.004;2023-04-23T14:28:57;19.00;99.90
9730;DHT22;4904;49.152;11.004;2023-04-23T14:31:27;19.20;99.90
9730;DHT22;4904;49.152;11.004;2023-04-23T14:33:55;19.50;99.90
9730;DHT22;4904;49.152;11.004;2023-04-23T14:36:23;19.90;99.90
9730;DHT22;4904;49.152;11.004;2023-04-23T14:38:50;20.20;99.90
9730;DHT22;4904;49.152;11.004;2023-04-23T14:41:17;20.60;99.90
9730;DHT22;4904;49.152;11.004;2023-04-23T14:43:46;20.80;99.90
9730;DHT22;4904;49.152;11.004;2023-04-23T14:46:13;21.00;99.90
9730;DHT22;4904;49.152;11.004;2023-04-23T14:48:40;20.70;99.90
9730;DHT22;4904;49.152;11.004;2023-04-23T14:51:07;20.80;99.90
9730;DHT22;4904;49.152;11.004;2023-04-23T14:53:34;20.90;99.90
9730;DHT22;4904;49.152;11.004;2023-04-23T14:56:01;20.90;99.90
9730;DHT22;4904;49.152;11.004;2023-04-23T14:58:28;20.70;99.90
9730;DHT22;4904;49.152;11.004;2023-04-23T15:00:56;20.00;99.90
9730;DHT22;4904;49.152;11.004;2023-04-23T15:03:24;19.80;99.90
9730;DHT22;4904;49.152;11.004;2023-04-23T15:05:52;20.30;99.90
9730;DHT22;4904;49.152;11.004;2023-04-23T15:08:19;20.40;99.90
9730;DHT22;4904;49.152;11.004;2023-04-23T15:10:46;20.60;99.90
9730;DHT22;4904;49.152;11.004;2023-04-23T15:13:35;20.80;99.90
9730;DHT22;4904;49.152;11.004;2023-04-23T15:16:08;21.90;99.90
9730;DHT22;4904;49.152;11.004;2023-04-23T15:18:43;21.80;99.90
9730;DHT22;4904;49.152;11.004;2023-04-23T15:21:11;22.20;99.90
9730;DHT22;4904;49.152;11.004;2023-04-23T15:23:38;22.70;99.90
9730;DHT22;4904;49.152;11.004;2023-04-23T15:26:06;23.40;99.90
9730;DHT22;4904;49.152;11.004;2023-04-23T15:28:34;23.40;99.90
9730;DHT22;4904;49.152;11.004;2023-04-23T15:31:01;21.90;99.90
9730;DHT22;4904;49.152;11.004;2023-04-23T15:33:29;20.90;99.90
9730;DHT22;4904;49.152;11.004;2023-04-23T15:35:57;20.50;99.90
9730;DHT22;4904;49.152;11.004;2023-04-23T15:38:24;20.20;99.90
9730;DHT22;4904;49.152;11.004;2023-04-23T15:40:51;20.00;99.90
9730;DHT22;4904;49.152;11.004;2023-04-23T15:43:18;20.00;99.90
9730;DHT22;4904;49.152;11.004;2023-04-23T15:45:45;20.50;99.90
9730;DHT22;4904;49.152;11.004;2023-04-23T15:48:13;21.40;99.90
9730;DHT22;4904;49.152;11.004;2023-04-23T15:50:43;22.50;99.90
9730;DHT22;4904;49.152;11.004;2023-04-23T15:53:11;23.20;99.90
9730;DHT22;4904;49.152;11.004;2023-04-23T15:55:37;22.70;99.90